sensor_id;sensor_type;location;lat;lon;timestamp;P1;durP1;ratioP1;P2;durP2;ratioP2
55720;SDS011;41626;53.098;6.168;2022-08-03T00:01:24;9.23;;;3.00;;
55720;SDS011;41626;53.098;6.168;2022-08-03T00:03:50;3.35;;;2.13;;
55720;SDS011;41626;53.098;6.168;2022-08-03T00:06:16;7.85;;;2.17;;
55720;SDS011;41626;53.098;6.168;2022-08-03T00:08:42;8.98;;;1.92;;
55720;SDS011;41626;53.098;6.168;2022-08-03T00:11:07;8.32;;;3.60;;
55720;SDS011;41626;53.098;6.168;2022-08-03T00:13:33;16.80;;;4.20;;
55720;SDS011;41626;53.098;6.168;2022-08-03T00:15:59;7.05;;;2.55;;
55720;SDS011;41626;53.098;6.168;2022-08-03T00:18:25;7.80;;;2.45;;
55720;SDS011;41626;53.098;6.168;2022-08-03T00:20:50;6.20;;;2.53;;
55720;SDS011;41626;53.098;6.168;2022-08-03T00:23:16;4.88;;;2.25;;
55720;SDS011;41626;53.098;6.168;2022-08-03T00:25:42;10.80;;;2.80;;
55720;SDS011;41626;53.098;6.168;2022-08-03T00:28:08;6.63;;;2.65;;
55720;SDS011;41626;53.098;6.168;2022-08-03T00:30:34;11.60;;;2.75;;
55720;SDS011;41626;53.098;6.168;2022-08-03T00:33:00;3.78;;;2.20;;
55720;SDS011;41626;53.098;6.168;2022-08-03T00:35:27;5.35;;;2.78;;
55720;SDS011;41626;53.098;6.168;2022-08-03T00:37:53;8.90;;;2.65;;
55720;SDS011;41626;53.098;6.168;2022-08-03T00:40:19;9.23;;;3.00;;
55720;SDS011;41626;53.098;6.168;2022-08-03T00:42:48;12.63;;;3.75;;
55720;SDS011;41626;53.098;6.168;2022-08-03T00:45:23;14.82;;;3.90;;
55720;SDS011;41626;53.098;6.168;2022-08-03T00:47:51;6.35;;;2.28;;
55720;SDS011;41626;53.098;6.168;2022-08-03T00:50:17;6.50;;;2.58;;
55720;SDS011;41626;53.098;6.168;2022-08-03T00:52:44;6.28;;;2.55;;
55720;SDS011;41626;53.098;6.168;2022-08-03T00:55:10;7.30;;;2.63;;
55720;SDS011;41626;53.098;6.168;2022-08-03T00:57:36;10.65;;;3.22;;
55720;SDS011;41626;53.098;6.168;2022-08-03T01:00:06;13.55;;;3.25;;
55720;SDS011;41626;53.098;6.168;2022-08-03T01:02:33;9.43;;;2.78;;
55720;SDS011;41626;53.098;6.168;2022-08-03T01:04:59;4.63;;;2.10;;
55720;SDS011;41626;53.098;6.168;2022-08-03T01:12:42;7.60;;;3.58;;
55720;SDS011;41626;53.098;6.168;2022-08-03T01:15:37;8.10;;;2.78;;
55720;SDS011;41626;53.098;6.168;2022-08-03T01:18:32;7.55;;;2.00;;
55720;SDS011;41626;53.098;6.168;2022-08-03T01:21:09;2.97;;;1.92;;
55720;SDS011;41626;53.098;6.168;2022-08-03T01:23:46;5.50;;;1.77;;
55720;SDS011;41626;53.098;6.168;2022-08-03T01:26:41;7.88;;;2.30;;
55720;SDS011;41626;53.098;6.168;2022-08-03T01:32:12;11.15;;;3.17;;
55720;SDS011;41626;53.098;6.168;2022-08-03T01:34:44;5.30;;;1.92;;
55720;SDS011;41626;53.098;6.168;2022-08-03T01:37:17;10.85;;;2.10;;
55720;SDS011;41626;53.098;6.168;2022-08-03T01:39:49;7.82;;;2.75;;
55720;SDS011;41626;53.098;6.168;2022-08-03T01:42:18;7.30;;;1.88;;
55720;SDS011;41626;53.098;6.168;2022-08-03T01:44:45;17.38;;;2.53;;
55720;SDS011;41626;53.098;6.168;2022-08-03T01:47:13;7.07;;;2.20;;
55720;SDS011;41626;53.098;6.168;2022-08-03T01:49:43;9.52;;;2.08;;
55720;SDS011;41626;53.098;6.168;2022-08-03T01:52:10;14.82;;;2.13;;
55720;SDS011;41626;53.098;6.168;2022-08-03T01:54:42;7.85;;;1.75;;
55720;SDS011;41626;53.098;6.168;2022-08-03T01:57:09;5.93;;;1.90;;
55720;SDS011;41626;53.098;6.168;2022-08-03T01:59:35;8.25;;;2.53;;
55720;SDS011;41626;53.098;6.168;2022-08-03T02:02:03;7.28;;;3.25;;
55720;SDS011;41626;53.098;6.168;2022-08-03T02:04:30;9.25;;;2.92;;
55720;SDS011;41626;53.098;6.168;2022-08-03T02:06:56;9.15;;;2.33;;
55720;SDS011;41626;53.098;6.168;2022-08-03T02:09:23;6.68;;;1.95;;
55720;SDS011;41626;53.098;6.168;2022-08-03T02:11:51;8.07;;;2.00;;
55720;SDS011;41626;53.098;6.168;2022-08-03T02:14:19;9.40;;;2.60;;
55720;SDS011;41626;53.098;6.168;2022-08-03T02:16:46;9.95;;;2.65;;
55720;SDS011;41626;53.098;6.168;2022-08-03T02:19:14;18.17;;;3.13;;
55720;SDS011;41626;53.098;6.168;2022-08-03T02:21:42;9.75;;;2.53;;
55720;SDS011;41626;53.098;6.168;2022-08-03T02:24:10;4.55;;;1.73;;
55720;SDS011;41626;53.098;6.168;2022-08-03T02:26:37;7.28;;;1.70;;
55720;SDS011;41626;53.098;6.168;2022-08-03T02:29:08;7.60;;;1.73;;
55720;SDS011;41626;53.098;6.168;2022-08-03T02:31:37;6.25;;;2.28;;
55720;SDS011;41626;53.098;6.168;2022-08-03T02:34:07;14.52;;;3.13;;
55720;SDS011;41626;53.098;6.168;2022-08-03T02:36:37;5.55;;;1.55;;
55720;SDS011;41626;53.098;6.168;2022-08-03T02:39:04;6.55;;;2.28;;
55720;SDS011;41626;53.098;6.168;2022-08-03T02:41:36;10.60;;;3.92;;
55720;SDS011;41626;53.098;6.168;2022-08-03T02:44:09;8.85;;;2.13;;
55720;SDS011;41626;53.098;6.168;2022-08-03T02:49:02;7.03;;;1.65;;
55720;SDS011;41626;53.098;6.168;2022-08-03T02:51:30;12.57;;;2.28;;
55720;SDS011;41626;53.098;6.168;2022-08-03T02:53:59;10.55;;;3.05;;
55720;SDS011;41626;53.098;6.168;2022-08-03T02:56:27;6.57;;;2.38;;
55720;SDS011;41626;53.098;6.168;2022-08-03T02:58:54;8.88;;;2.42;;
55720;SDS011;41626;53.098;6.168;2022-08-03T03:01:23;7.65;;;2.00;;
55720;SDS011;41626;53.098;6.168;2022-08-03T03:03:50;6.35;;;2.42;;
55720;SDS011;41626;53.098;6.168;2022-08-03T03:06:18;4.78;;;1.70;;
55720;SDS011;41626;53.098;6.168;2022-08-03T03:08:44;6.80;;;2.88;;
55720;SDS011;41626;53.098;6.168;2022-08-03T03:11:11;9.93;;;2.53;;
55720;SDS011;41626;53.098;6.168;2022-08-03T03:13:39;14.00;;;3.75;;
55720;SDS011;41626;53.098;6.168;2022-08-03T03:16:06;16.55;;;3.00;;
55720;SDS011;41626;53.098;6.168;2022-08-03T03:18:33;13.45;;;2.53;;
55720;SDS011;41626;53.098;6.168;2022-08-03T03:21:00;12.23;;;2.88;;
55720;SDS011;41626;53.098;6.168;2022-08-03T03:23:28;5.85;;;2.75;;
55720;SDS011;41626;53.098;6.168;2022-08-03T03:25:54;17.65;;;3.45;;
55720;SDS011;41626;53.098;6.168;2022-08-03T03:28:22;10.00;;;3.15;;
55720;SDS011;41626;53.098;6.168;2022-08-03T03:30:49;8.02;;;2.40;;
55720;SDS011;41626;53.098;6.168;2022-08-03T03:33:15;6.63;;;2.30;;
55720;SDS011;41626;53.098;6.168;2022-08-03T03:35:41;7.65;;;2.13;;
55720;SDS011;41626;53.098;6.168;2022-08-03T03:38:09;12.38;;;3.03;;
55720;SDS011;41626;53.098;6.168;2022-08-03T03:40:36;9.13;;;2.95;;
55720;SDS011;41626;53.098;6.168;2022-08-03T03:43:03;9.40;;;2.92;;
55720;SDS011;41626;53.098;6.168;2022-08-03T03:45:33;19.55;;;4.32;;
55720;SDS011;41626;53.098;6.168;2022-08-03T03:48:05;13.02;;;3.58;;
55720;SDS011;41626;53.098;6.168;2022-08-03T03:50:32;4.57;;;3.08;;
55720;SDS011;41626;53.098;6.168;2022-08-03T03:52:59;14.32;;;3.15;;
55720;SDS011;41626;53.098;6.168;2022-08-03T03:55:25;7.50;;;2.67;;
55720;SDS011;41626;53.098;6.168;2022-08-03T03:57:51;8.52;;;3.17;;
55720;SDS011;41626;53.098;6.168;2022-08-03T04:00:17;10.75;;;2.95;;
55720;SDS011;41626;53.098;6.168;2022-08-03T04:02:43;11.55;;;2.80;;
55720;SDS011;41626;53.098;6.168;2022-08-03T04:05:09;10.38;;;2.70;;
55720;SDS011;41626;53.098;6.168;2022-08-03T04:07:56;18.48;;;4.07;;
55720;SDS011;41626;53.098;6.168;2022-08-03T04:10:45;9.00;;;2.42;;
55720;SDS011;41626;53.098;6.168;2022-08-03T04:13:30;9.02;;;3.10;;
55720;SDS011;41626;53.098;6.168;2022-08-03T04:16:00;8.88;;;2.80;;
55720;SDS011;41626;53.098;6.168;2022-08-03T04:18:28;10.10;;;4.07;;
55720;SDS011;41626;53.098;6.168;2022-08-03T04:20:57;20.88;;;4.70;;
55720;SDS011;41626;53.098;6.168;2022-08-03T04:23:28;10.68;;;2.83;;
55720;SDS011;41626;53.098;6.168;2022-08-03T04:25:57;8.07;;;3.00;;
55720;SDS011;41626;53.098;6.168;2022-08-03T04:28:25;11.63;;;2.75;;
55720;SDS011;41626;53.098;6.168;2022-08-03T04:30:52;12.75;;;3.95;;
55720;SDS011;41626;53.098;6.168;2022-08-03T04:33:20;10.77;;;3.08;;
55720;SDS011;41626;53.098;6.168;2022-08-03T04:35:49;11.65;;;3.30;;
55720;SDS011;41626;53.098;6.168;2022-08-03T04:38:19;7.25;;;2.75;;
55720;SDS011;41626;53.098;6.168;2022-08-03T04:40:47;7.57;;;2.53;;
55720;SDS011;41626;53.098;6.168;2022-08-03T04:43:13;10.60;;;3.88;;
55720;SDS011;41626;53.098;6.168;2022-08-03T04:45:42;9.97;;;3.80;;
55720;SDS011;41626;53.098;6.168;2022-08-03T04:48:11;12.85;;;2.72;;
55720;SDS011;41626;53.098;6.168;2022-08-03T04:50:38;11.95;;;3.53;;
55720;SDS011;41626;53.098;6.168;2022-08-03T04:53:05;13.18;;;3.85;;
55720;SDS011;41626;53.098;6.168;2022-08-03T04:55:32;18.17;;;3.83;;
55720;SDS011;41626;53.098;6.168;2022-08-03T04:57:59;9.23;;;3.08;;
55720;SDS011;41626;53.098;6.168;2022-08-03T05:00:26;15.90;;;3.47;;
55720;SDS011;41626;53.098;6.168;2022-08-03T05:02:52;11.63;;;3.28;;
55720;SDS011;41626;53.098;6.168;2022-08-03T05:05:19;15.77;;;3.70;;
55720;SDS011;41626;53.098;6.168;2022-08-03T05:07:45;28.25;;;4.45;;
55720;SDS011;41626;53.098;6.168;2022-08-03T05:10:11;14.02;;;3.67;;
55720;SDS011;41626;53.098;6.168;2022-08-03T05:12:38;7.38;;;2.90;;
55720;SDS011;41626;53.098;6.168;2022-08-03T05:15:04;11.48;;;3.28;;
55720;SDS011;41626;53.098;6.168;2022-08-03T05:17:30;11.73;;;3.40;;
55720;SDS011;41626;53.098;6.168;2022-08-03T05:19:58;9.60;;;3.00;;
55720;SDS011;41626;53.098;6.168;2022-08-03T05:22:24;12.98;;;2.75;;
55720;SDS011;41626;53.098;6.168;2022-08-03T05:24:50;14.57;;;2.92;;
55720;SDS011;41626;53.098;6.168;2022-08-03T05:27:16;10.02;;;2.35;;
55720;SDS011;41626;53.098;6.168;2022-08-03T05:29:47;15.95;;;3.35;;
55720;SDS011;41626;53.098;6.168;2022-08-03T05:32:14;14.48;;;3.85;;
55720;SDS011;41626;53.098;6.168;2022-08-03T05:34:40;14.70;;;3.35;;
55720;SDS011;41626;53.098;6.168;2022-08-03T05:37:06;17.42;;;3.45;;
55720;SDS011;41626;53.098;6.168;2022-08-03T05:39:33;10.52;;;3.63;;
55720;SDS011;41626;53.098;6.168;2022-08-03T05:41:59;16.02;;;4.50;;
55720;SDS011;41626;53.098;6.168;2022-08-03T05:44:25;8.43;;;2.72;;
55720;SDS011;41626;53.098;6.168;2022-08-03T05:46:51;9.02;;;2.63;;
55720;SDS011;41626;53.098;6.168;2022-08-03T05:49:17;9.75;;;2.97;;
55720;SDS011;41626;53.098;6.168;2022-08-03T05:51:43;11.43;;;2.88;;
55720;SDS011;41626;53.098;6.168;2022-08-03T05:54:09;10.20;;;2.72;;
55720;SDS011;41626;53.098;6.168;2022-08-03T05:56:35;9.73;;;2.67;;
55720;SDS011;41626;53.098;6.168;2022-08-03T05:59:01;14.60;;;3.95;;
55720;SDS011;41626;53.098;6.168;2022-08-03T06:01:27;12.70;;;4.60;;
55720;SDS011;41626;53.098;6.168;2022-08-03T06:03:53;11.90;;;3.95;;
55720;SDS011;41626;53.098;6.168;2022-08-03T06:06:19;11.00;;;3.20;;
55720;SDS011;41626;53.098;6.168;2022-08-03T06:08:45;13.38;;;4.35;;
55720;SDS011;41626;53.098;6.168;2022-08-03T06:11:12;8.18;;;2.60;;
55720;SDS011;41626;53.098;6.168;2022-08-03T06:13:38;28.98;;;4.30;;
55720;SDS011;41626;53.098;6.168;2022-08-03T06:16:04;14.18;;;3.25;;
55720;SDS011;41626;53.098;6.168;2022-08-03T06:18:31;15.10;;;3.50;;
55720;SDS011;41626;53.098;6.168;2022-08-03T06:20:57;21.65;;;5.60;;
55720;SDS011;41626;53.098;6.168;2022-08-03T06:23:23;11.73;;;3.50;;
55720;SDS011;41626;53.098;6.168;2022-08-03T06:25:48;21.20;;;4.38;;
55720;SDS011;41626;53.098;6.168;2022-08-03T06:28:14;10.95;;;2.85;;
55720;SDS011;41626;53.098;6.168;2022-08-03T06:30:40;11.38;;;3.92;;
55720;SDS011;41626;53.098;6.168;2022-08-03T06:33:06;12.10;;;4.28;;
55720;SDS011;41626;53.098;6.168;2022-08-03T06:35:31;11.90;;;3.63;;
55720;SDS011;41626;53.098;6.168;2022-08-03T06:37:57;11.40;;;3.70;;
55720;SDS011;41626;53.098;6.168;2022-08-03T06:40:23;22.10;;;5.13;;
55720;SDS011;41626;53.098;6.168;2022-08-03T06:42:59;22.73;;;4.07;;
55720;SDS011;41626;53.098;6.168;2022-08-03T06:45:26;12.60;;;3.33;;
55720;SDS011;41626;53.098;6.168;2022-08-03T06:48:03;13.60;;;3.60;;
55720;SDS011;41626;53.098;6.168;2022-08-03T06:50:30;13.25;;;3.70;;
55720;SDS011;41626;53.098;6.168;2022-08-03T06:52:57;14.70;;;6.07;;
55720;SDS011;41626;53.098;6.168;2022-08-03T06:55:23;15.93;;;3.33;;
55720;SDS011;41626;53.098;6.168;2022-08-03T06:57:49;19.02;;;4.95;;
55720;SDS011;41626;53.098;6.168;2022-08-03T07:00:14;16.83;;;3.78;;
55720;SDS011;41626;53.098;6.168;2022-08-03T07:02:40;16.23;;;5.40;;
55720;SDS011;41626;53.098;6.168;2022-08-03T07:05:06;11.68;;;5.57;;
55720;SDS011;41626;53.098;6.168;2022-08-03T07:07:33;16.67;;;4.68;;
55720;SDS011;41626;53.098;6.168;2022-08-03T07:09:59;10.02;;;4.50;;
55720;SDS011;41626;53.098;6.168;2022-08-03T07:12:28;9.57;;;4.60;;
55720;SDS011;41626;53.098;6.168;2022-08-03T07:14:54;19.58;;;4.35;;
55720;SDS011;41626;53.098;6.168;2022-08-03T07:17:21;16.00;;;3.72;;
55720;SDS011;41626;53.098;6.168;2022-08-03T07:19:47;21.70;;;4.50;;
55720;SDS011;41626;53.098;6.168;2022-08-03T07:22:12;11.45;;;4.30;;
55720;SDS011;41626;53.098;6.168;2022-08-03T07:24:38;14.52;;;4.20;;
55720;SDS011;41626;53.098;6.168;2022-08-03T07:27:05;10.15;;;4.63;;
55720;SDS011;41626;53.098;6.168;2022-08-03T07:29:33;12.00;;;3.58;;
55720;SDS011;41626;53.098;6.168;2022-08-03T07:31:58;17.70;;;3.97;;
55720;SDS011;41626;53.098;6.168;2022-08-03T07:34:24;14.43;;;5.03;;
55720;SDS011;41626;53.098;6.168;2022-08-03T07:36:50;14.85;;;4.85;;
55720;SDS011;41626;53.098;6.168;2022-08-03T07:39:15;12.50;;;3.80;;
55720;SDS011;41626;53.098;6.168;2022-08-03T07:41:41;15.88;;;5.03;;
55720;SDS011;41626;53.098;6.168;2022-08-03T07:44:07;10.40;;;4.80;;
55720;SDS011;41626;53.098;6.168;2022-08-03T07:46:32;19.38;;;4.03;;
55720;SDS011;41626;53.098;6.168;2022-08-03T07:48:58;9.90;;;4.25;;
55720;SDS011;41626;53.098;6.168;2022-08-03T07:51:24;13.25;;;4.40;;
55720;SDS011;41626;53.098;6.168;2022-08-03T07:53:49;10.70;;;4.10;;
55720;SDS011;41626;53.098;6.168;2022-08-03T07:56:15;11.63;;;4.38;;
55720;SDS011;41626;53.098;6.168;2022-08-03T07:58:41;13.35;;;5.00;;
55720;SDS011;41626;53.098;6.168;2022-08-03T08:01:07;20.90;;;7.10;;
55720;SDS011;41626;53.098;6.168;2022-08-03T08:03:32;18.70;;;4.18;;
55720;SDS011;41626;53.098;6.168;2022-08-03T08:05:58;17.25;;;5.47;;
55720;SDS011;41626;53.098;6.168;2022-08-03T08:08:24;14.00;;;5.43;;
55720;SDS011;41626;53.098;6.168;2022-08-03T08:10:49;13.55;;;3.90;;
55720;SDS011;41626;53.098;6.168;2022-08-03T08:13:15;26.02;;;7.50;;
55720;SDS011;41626;53.098;6.168;2022-08-03T08:15:41;13.43;;;3.70;;
55720;SDS011;41626;53.098;6.168;2022-08-03T08:18:06;12.13;;;4.70;;
55720;SDS011;41626;53.098;6.168;2022-08-03T08:20:32;10.02;;;4.72;;
55720;SDS011;41626;53.098;6.168;2022-08-03T08:23:02;12.23;;;4.13;;
55720;SDS011;41626;53.098;6.168;2022-08-03T08:25:30;15.07;;;5.63;;
55720;SDS011;41626;53.098;6.168;2022-08-03T08:27:56;14.95;;;5.78;;
55720;SDS011;41626;53.098;6.168;2022-08-03T08:30:25;18.95;;;6.57;;
55720;SDS011;41626;53.098;6.168;2022-08-03T08:32:51;12.48;;;4.65;;
55720;SDS011;41626;53.098;6.168;2022-08-03T08:35:17;12.90;;;6.28;;
55720;SDS011;41626;53.098;6.168;2022-08-03T08:37:44;13.32;;;7.38;;
55720;SDS011;41626;53.098;6.168;2022-08-03T08:40:10;13.32;;;7.32;;
55720;SDS011;41626;53.098;6.168;2022-08-03T08:42:38;20.65;;;7.90;;
55720;SDS011;41626;53.098;6.168;2022-08-03T08:45:05;12.40;;;6.30;;
55720;SDS011;41626;53.098;6.168;2022-08-03T08:47:32;14.25;;;5.47;;
55720;SDS011;41626;53.098;6.168;2022-08-03T08:50:01;12.38;;;7.13;;
55720;SDS011;41626;53.098;6.168;2022-08-03T08:52:28;24.08;;;7.72;;
55720;SDS011;41626;53.098;6.168;2022-08-03T08:54:58;12.02;;;6.95;;
55720;SDS011;41626;53.098;6.168;2022-08-03T08:57:28;21.83;;;7.18;;
55720;SDS011;41626;53.098;6.168;2022-08-03T09:00:03;14.73;;;6.57;;
55720;SDS011;41626;53.098;6.168;2022-08-03T09:02:34;21.23;;;6.75;;
55720;SDS011;41626;53.098;6.168;2022-08-03T09:05:00;20.48;;;6.85;;
55720;SDS011;41626;53.098;6.168;2022-08-03T09:07:26;14.98;;;6.32;;
55720;SDS011;41626;53.098;6.168;2022-08-03T09:09:52;14.93;;;6.22;;
55720;SDS011;41626;53.098;6.168;2022-08-03T09:12:19;16.30;;;7.18;;
55720;SDS011;41626;53.098;6.168;2022-08-03T09:14:44;17.27;;;6.90;;
55720;SDS011;41626;53.098;6.168;2022-08-03T09:17:10;19.13;;;6.72;;
55720;SDS011;41626;53.098;6.168;2022-08-03T09:19:36;14.85;;;6.68;;
55720;SDS011;41626;53.098;6.168;2022-08-03T09:22:11;16.45;;;6.18;;
55720;SDS011;41626;53.098;6.168;2022-08-03T09:24:58;17.58;;;8.32;;
55720;SDS011;41626;53.098;6.168;2022-08-03T09:27:45;16.10;;;6.18;;
55720;SDS011;41626;53.098;6.168;2022-08-03T09:30:15;16.38;;;6.15;;
55720;SDS011;41626;53.098;6.168;2022-08-03T09:32:42;10.25;;;5.18;;
55720;SDS011;41626;53.098;6.168;2022-08-03T09:35:10;17.65;;;6.82;;
55720;SDS011;41626;53.098;6.168;2022-08-03T09:37:37;13.45;;;5.57;;
55720;SDS011;41626;53.098;6.168;2022-08-03T09:40:03;20.70;;;6.22;;
55720;SDS011;41626;53.098;6.168;2022-08-03T09:42:29;15.88;;;6.68;;
55720;SDS011;41626;53.098;6.168;2022-08-03T09:44:55;16.80;;;5.30;;
55720;SDS011;41626;53.098;6.168;2022-08-03T09:47:31;21.45;;;7.53;;
55720;SDS011;41626;53.098;6.168;2022-08-03T09:50:04;12.70;;;5.18;;
55720;SDS011;41626;53.098;6.168;2022-08-03T09:52:37;12.50;;;5.00;;
55720;SDS011;41626;53.098;6.168;2022-08-03T09:55:07;18.13;;;6.53;;
55720;SDS011;41626;53.098;6.168;2022-08-03T09:57:35;10.77;;;5.70;;
55720;SDS011;41626;53.098;6.168;2022-08-03T10:00:07;11.48;;;4.85;;
55720;SDS011;41626;53.098;6.168;2022-08-03T10:02:39;15.82;;;6.88;;
55720;SDS011;41626;53.098;6.168;2022-08-03T10:05:07;18.55;;;8.52;;
55720;SDS011;41626;53.098;6.168;2022-08-03T10:07:44;16.50;;;6.20;;
55720;SDS011;41626;53.098;6.168;2022-08-03T10:10:11;15.88;;;6.85;;
55720;SDS011;41626;53.098;6.168;2022-08-03T10:12:39;17.05;;;7.55;;
55720;SDS011;41626;53.098;6.168;2022-08-03T10:15:06;19.55;;;7.80;;
55720;SDS011;41626;53.098;6.168;2022-08-03T10:17:32;20.17;;;9.45;;
55720;SDS011;41626;53.098;6.168;2022-08-03T10:19:58;20.17;;;9.23;;
55720;SDS011;41626;53.098;6.168;2022-08-03T10:22:26;24.88;;;10.40;;
55720;SDS011;41626;53.098;6.168;2022-08-03T10:27:32;21.85;;;8.32;;
55720;SDS011;41626;53.098;6.168;2022-08-03T10:30:01;32.97;;;10.77;;
55720;SDS011;41626;53.098;6.168;2022-08-03T10:32:42;20.30;;;8.60;;
55720;SDS011;41626;53.098;6.168;2022-08-03T10:35:16;21.95;;;9.13;;
55720;SDS011;41626;53.098;6.168;2022-08-03T10:37:47;31.90;;;9.13;;
55720;SDS011;41626;53.098;6.168;2022-08-03T10:40:21;18.40;;;7.63;;
55720;SDS011;41626;53.098;6.168;2022-08-03T10:42:48;22.98;;;8.38;;
55720;SDS011;41626;53.098;6.168;2022-08-03T10:45:22;15.50;;;7.07;;
55720;SDS011;41626;53.098;6.168;2022-08-03T10:47:50;18.15;;;6.95;;
55720;SDS011;41626;53.098;6.168;2022-08-03T10:50:17;17.75;;;7.35;;
55720;SDS011;41626;53.098;6.168;2022-08-03T10:55:57;24.08;;;9.57;;
55720;SDS011;41626;53.098;6.168;2022-08-03T11:01:11;33.58;;;8.07;;
55720;SDS011;41626;53.098;6.168;2022-08-03T11:06:22;25.48;;;6.35;;
55720;SDS011;41626;53.098;6.168;2022-08-03T11:11:33;18.63;;;8.18;;
55720;SDS011;41626;53.098;6.168;2022-08-03T11:14:04;24.52;;;7.85;;
55720;SDS011;41626;53.098;6.168;2022-08-03T11:16:32;23.25;;;6.70;;
55720;SDS011;41626;53.098;6.168;2022-08-03T11:19:07;18.42;;;8.70;;
55720;SDS011;41626;53.098;6.168;2022-08-03T11:45:55;19.17;;;5.95;;
55720;SDS011;41626;53.098;6.168;2022-08-03T11:48:41;20.52;;;7.07;;
55720;SDS011;41626;53.098;6.168;2022-08-03T11:54:04;19.10;;;5.45;;
55720;SDS011;41626;53.098;6.168;2022-08-03T11:56:43;22.67;;;7.55;;
55720;SDS011;41626;53.098;6.168;2022-08-03T11:59:11;18.63;;;6.75;;
55720;SDS011;41626;53.098;6.168;2022-08-03T12:01:37;20.02;;;6.35;;
55720;SDS011;41626;53.098;6.168;2022-08-03T12:04:04;21.42;;;7.65;;
55720;SDS011;41626;53.098;6.168;2022-08-03T12:06:30;17.55;;;6.35;;
55720;SDS011;41626;53.098;6.168;2022-08-03T12:09:16;27.40;;;6.57;;
55720;SDS011;41626;53.098;6.168;2022-08-03T12:11:41;21.45;;;6.95;;
55720;SDS011;41626;53.098;6.168;2022-08-03T12:14:07;24.35;;;6.15;;
55720;SDS011;41626;53.098;6.168;2022-08-03T12:16:40;22.27;;;6.15;;
55720;SDS011;41626;53.098;6.168;2022-08-03T12:19:11;15.95;;;5.50;;
55720;SDS011;41626;53.098;6.168;2022-08-03T12:21:46;20.65;;;6.78;;
55720;SDS011;41626;53.098;6.168;2022-08-03T12:24:13;21.10;;;5.90;;
55720;SDS011;41626;53.098;6.168;2022-08-03T12:29:16;23.38;;;6.13;;
55720;SDS011;41626;53.098;6.168;2022-08-03T12:31:42;21.80;;;7.00;;
55720;SDS011;41626;53.098;6.168;2022-08-03T12:34:08;11.85;;;4.50;;
55720;SDS011;41626;53.098;6.168;2022-08-03T12:36:34;18.27;;;5.03;;
55720;SDS011;41626;53.098;6.168;2022-08-03T12:39:05;15.35;;;5.63;;
55720;SDS011;41626;53.098;6.168;2022-08-03T12:43:59;18.63;;;4.78;;
55720;SDS011;41626;53.098;6.168;2022-08-03T12:46:30;24.27;;;5.72;;
55720;SDS011;41626;53.098;6.168;2022-08-03T12:49:04;21.35;;;5.75;;
55720;SDS011;41626;53.098;6.168;2022-08-03T12:51:57;20.73;;;6.20;;
55720;SDS011;41626;53.098;6.168;2022-08-03T12:54:27;17.13;;;4.90;;
55720;SDS011;41626;53.098;6.168;2022-08-03T12:56:57;10.85;;;5.22;;
55720;SDS011;41626;53.098;6.168;2022-08-03T12:59:24;13.30;;;4.97;;
55720;SDS011;41626;53.098;6.168;2022-08-03T13:01:58;21.35;;;5.78;;
55720;SDS011;41626;53.098;6.168;2022-08-03T13:04:27;25.10;;;7.50;;
55720;SDS011;41626;53.098;6.168;2022-08-03T13:09:24;20.05;;;5.00;;
55720;SDS011;41626;53.098;6.168;2022-08-03T13:12:11;23.77;;;5.60;;
55720;SDS011;41626;53.098;6.168;2022-08-03T13:14:42;21.17;;;6.00;;
55720;SDS011;41626;53.098;6.168;2022-08-03T13:17:09;22.90;;;5.60;;
55720;SDS011;41626;53.098;6.168;2022-08-03T13:19:35;23.13;;;5.50;;
55720;SDS011;41626;53.098;6.168;2022-08-03T13:22:15;19.98;;;5.85;;
55720;SDS011;41626;53.098;6.168;2022-08-03T13:24:45;16.38;;;5.63;;
55720;SDS011;41626;53.098;6.168;2022-08-03T13:27:12;15.70;;;4.85;;
55720;SDS011;41626;53.098;6.168;2022-08-03T13:29:38;16.92;;;4.80;;
55720;SDS011;41626;53.098;6.168;2022-08-03T13:32:05;26.05;;;6.68;;
55720;SDS011;41626;53.098;6.168;2022-08-03T13:34:31;13.10;;;3.95;;
55720;SDS011;41626;53.098;6.168;2022-08-03T13:36:57;21.42;;;4.70;;
55720;SDS011;41626;53.098;6.168;2022-08-03T13:39:23;14.35;;;4.80;;
55720;SDS011;41626;53.098;6.168;2022-08-03T13:41:48;15.98;;;5.68;;
55720;SDS011;41626;53.098;6.168;2022-08-03T13:44:14;12.23;;;4.88;;
55720;SDS011;41626;53.098;6.168;2022-08-03T13:46:40;20.25;;;5.90;;
55720;SDS011;41626;53.098;6.168;2022-08-03T13:49:06;19.77;;;5.50;;
55720;SDS011;41626;53.098;6.168;2022-08-03T13:51:33;23.10;;;6.10;;
55720;SDS011;41626;53.098;6.168;2022-08-03T13:53:59;25.33;;;6.93;;
55720;SDS011;41626;53.098;6.168;2022-08-03T13:56:27;17.23;;;4.75;;
55720;SDS011;41626;53.098;6.168;2022-08-03T13:58:54;10.02;;;4.45;;
55720;SDS011;41626;53.098;6.168;2022-08-03T14:01:20;16.23;;;4.97;;
55720;SDS011;41626;53.098;6.168;2022-08-03T14:03:46;22.00;;;5.47;;
55720;SDS011;41626;53.098;6.168;2022-08-03T14:06:18;13.05;;;4.28;;
55720;SDS011;41626;53.098;6.168;2022-08-03T14:08:45;13.63;;;5.70;;
55720;SDS011;41626;53.098;6.168;2022-08-03T14:11:12;11.07;;;4.40;;
55720;SDS011;41626;53.098;6.168;2022-08-03T14:13:38;31.67;;;6.10;;
55720;SDS011;41626;53.098;6.168;2022-08-03T14:16:04;27.52;;;5.90;;
55720;SDS011;41626;53.098;6.168;2022-08-03T14:18:30;10.50;;;4.07;;
55720;SDS011;41626;53.098;6.168;2022-08-03T14:20:56;15.85;;;5.53;;
55720;SDS011;41626;53.098;6.168;2022-08-03T14:23:23;22.83;;;6.90;;
55720;SDS011;41626;53.098;6.168;2022-08-03T14:25:49;15.63;;;4.22;;
55720;SDS011;41626;53.098;6.168;2022-08-03T14:28:15;26.73;;;6.72;;
55720;SDS011;41626;53.098;6.168;2022-08-03T14:30:46;13.95;;;3.95;;
55720;SDS011;41626;53.098;6.168;2022-08-03T14:33:12;17.35;;;4.35;;
55720;SDS011;41626;53.098;6.168;2022-08-03T14:35:38;13.70;;;4.72;;
55720;SDS011;41626;53.098;6.168;2022-08-03T14:38:04;10.57;;;3.63;;
55720;SDS011;41626;53.098;6.168;2022-08-03T14:40:29;14.80;;;3.08;;
55720;SDS011;41626;53.098;6.168;2022-08-03T14:42:55;11.20;;;3.83;;
55720;SDS011;41626;53.098;6.168;2022-08-03T14:45:21;12.20;;;4.00;;
55720;SDS011;41626;53.098;6.168;2022-08-03T14:47:47;9.45;;;3.83;;
55720;SDS011;41626;53.098;6.168;2022-08-03T14:50:13;20.63;;;3.30;;
55720;SDS011;41626;53.098;6.168;2022-08-03T14:52:38;15.02;;;3.88;;
55720;SDS011;41626;53.098;6.168;2022-08-03T14:55:04;9.55;;;3.78;;
55720;SDS011;41626;53.098;6.168;2022-08-03T14:57:30;10.02;;;3.63;;
55720;SDS011;41626;53.098;6.168;2022-08-03T14:59:56;12.25;;;3.55;;
55720;SDS011;41626;53.098;6.168;2022-08-03T15:02:21;17.67;;;4.03;;
55720;SDS011;41626;53.098;6.168;2022-08-03T15:04:47;18.92;;;5.00;;
55720;SDS011;41626;53.098;6.168;2022-08-03T15:07:12;7.78;;;3.40;;
55720;SDS011;41626;53.098;6.168;2022-08-03T15:09:38;8.13;;;4.25;;
55720;SDS011;41626;53.098;6.168;2022-08-03T15:12:04;14.43;;;3.72;;
55720;SDS011;41626;53.098;6.168;2022-08-03T15:14:30;11.45;;;3.53;;
55720;SDS011;41626;53.098;6.168;2022-08-03T15:16:56;10.93;;;3.92;;
55720;SDS011;41626;53.098;6.168;2022-08-03T15:19:22;15.15;;;5.32;;
55720;SDS011;41626;53.098;6.168;2022-08-03T15:21:47;10.98;;;3.38;;
55720;SDS011;41626;53.098;6.168;2022-08-03T15:24:13;7.97;;;3.20;;
55720;SDS011;41626;53.098;6.168;2022-08-03T15:26:39;14.15;;;3.83;;
55720;SDS011;41626;53.098;6.168;2022-08-03T15:29:04;7.25;;;3.25;;
55720;SDS011;41626;53.098;6.168;2022-08-03T15:31:32;10.13;;;3.40;;
55720;SDS011;41626;53.098;6.168;2022-08-03T15:33:58;14.60;;;3.83;;
55720;SDS011;41626;53.098;6.168;2022-08-03T15:36:23;12.40;;;2.90;;
55720;SDS011;41626;53.098;6.168;2022-08-03T15:38:50;7.00;;;2.65;;
55720;SDS011;41626;53.098;6.168;2022-08-03T15:41:17;13.80;;;3.47;;
55720;SDS011;41626;53.098;6.168;2022-08-03T15:43:42;11.68;;;2.03;;